Time;durP1;ratioP1;P1;durP2;ratioP2;P2;SDS_P1;SDS_P2;PMS_P1;PMS_P2;Temp;Humidity;BMP_temperature;BMP_pressure;BME280_temperature;BME280_humidity;BME280_pressure;Samples;Min_cycle;Max_cycle;Signal;HPM_P1;HPM_P2
2021/01/08 00:02:16;;;;;;;113.50;66.60;;;;;;;8.11;100.00;96710.38;5025119;28;20601;-67
2021/01/08 00:04:42;;;;;;;105.90;61.40;;;;;;;7.70;100.00;96649.25;5025412;28;20092;-67
2021/01/08 00:07:08;;;;;;;107.93;62.85;;;;;;;8.16;100.00;96732.16;5006790;28;20424;-67
2021/01/08 00:09:33;;;;;;;111.80;63.33;;;;;;;7.71;100.00;96661.88;5025458;28;20045;-67
2021/01/08 00:11:59;;;;;;;113.80;63.17;;;;;;;8.15;100.00;96730.56;5024945;28;20029;-67
2021/01/08 00:14:24;;;;;;;112.15;60.25;;;;;;;7.90;100.00;96679.59;5025308;28;20033;-67
2021/01/08 00:16:50;;;;;;;110.32;58.85;;;;;;;7.58;100.00;96674.19;5006531;28;20496;-67
2021/01/08 00:19:15;;;;;;;83.53;47.92;;;;;;;8.15;100.00;96714.00;5025091;28;20045;-68
2021/01/08 00:21:44;;;;;;;81.78;47.33;;;;;;;8.14;100.00;96695.88;5024493;28;20387;-67
2021/01/08 00:24:13;;;;;;;78.28;45.50;;;;;;;8.21;100.00;96713.34;5024925;28;20045;-68
2021/01/08 00:26:41;;;;;;;112.38;65.63;;;;;;;7.66;100.00;96631.03;5024469;28;20033;-67
2021/01/08 00:29:07;;;;;;;105.25;59.83;;;;;;;6.80;100.00;96505.59;5006959;28;20037;-68
2021/01/08 00:31:59;;;;;;;108.55;63.60;;;;;;;7.39;100.00;96616.28;5006173;28;20119;-66
2021/01/08 00:34:25;;;;;;;94.20;55.65;;;;;;;7.56;100.00;96609.56;5003566;28;20041;-68
2021/01/08 00:36:52;;;;;;;92.68;54.35;;;;;;;8.11;100.00;96702.91;5024218;28;20030;-67
2021/01/08 00:39:19;;;;;;;101.07;57.90;;;;;;;8.02;100.00;96696.00;5006685;28;20041;-68
2021/01/08 00:41:45;;;;;;;99.40;58.10;;;;;;;7.98;100.00;96681.34;5024079;28;20033;-68
2021/01/08 00:44:11;;;;;;;99.40;59.08;;;;;;;8.18;100.00;96696.72;5024710;28;20108;-67
2021/01/08 00:46:45;;;;;;;112.82;68.35;;;;;;;8.20;100.00;96683.38;5023613;28;20053;-67
2021/01/08 00:49:11;;;;;;;103.65;59.33;;;;;;;8.17;100.00;96695.13;5006738;28;20136;-67
2021/01/08 00:51:37;;;;;;;115.00;66.93;;;;;;;8.21;100.00;96691.28;5035357;28;20017;-68
2021/01/08 00:54:04;;;;;;;124.47;69.07;;;;;;;8.25;100.00;96686.66;5064254;28;20044;-68
2021/01/08 00:56:29;;;;;;;111.80;62.85;;;;;;;8.13;100.00;96708.03;5063825;28;20029;-68
2021/01/08 00:58:55;;;;;;;101.15;57.83;;;;;;;8.00;100.00;96693.59;5046360;28;20025;-69
2021/01/08 01:01:21;;;;;;;85.65;49.35;;;;;;;7.94;100.00;96691.47;5045026;28;20399;-67
2021/01/08 01:03:47;;;;;;;84.18;52.08;;;;;;;7.78;100.00;96654.94;5062590;28;20028;-67
2021/01/08 01:06:27;;;;;;;84.68;50.45;;;;;;;8.06;100.00;96677.56;5063952;28;20028;-67
2021/01/08 01:08:53;;;;;;;80.18;48.70;;;;;;;8.00;100.00;96662.47;5064545;28;20486;-67
2021/01/08 01:11:20;;;;;;;81.07;45.80;;;;;;;7.89;100.00;96661.47;5064133;28;20546;-68
2021/01/08 01:13:46;;;;;;;73.18;45.00;;;;;;;7.54;100.00;96585.13;5045939;28;20048;-68
2021/01/08 01:16:13;;;;;;;81.65;47.40;;;;;;;7.66;100.00;96609.81;5063732;28;20060;-68
2021/01/08 01:18:39;;;;;;;79.63;45.40;;;;;;;8.02;100.00;96654.63;5045725;28;20128;-68
2021/01/08 01:21:04;;;;;;;72.95;45.42;;;;;;;7.87;100.00;96641.72;5063921;28;20119;-68
2021/01/08 01:23:30;;;;;;;87.78;49.33;;;;;;;7.89;100.00;96655.94;5064271;28;20028;-67
2021/01/08 01:25:55;;;;;;;78.07;46.47;;;;;;;7.88;100.00;96624.00;5063151;28;20047;-68
2021/01/08 01:28:21;;;;;;;72.55;45.25;;;;;;;7.97;100.00;96647.44;5064345;28;20032;-67
2021/01/08 01:30:46;;;;;;;70.85;43.97;;;;;;;8.01;100.00;96647.53;5063604;28;20040;-68
2021/01/08 01:33:12;;;;;;;78.03;44.53;;;;;;;7.90;100.00;96632.72;5063920;28;20234;-68
2021/01/08 01:35:37;;;;;;;73.82;42.40;;;;;;;7.95;100.00;96651.72;5063623;28;20032;-68
2021/01/08 01:38:02;;;;;;;60.50;37.67;;;;;;;7.94;100.00;96644.59;5063835;28;20418;-68
2021/01/08 01:40:28;;;;;;;68.30;42.22;;;;;;;7.49;100.00;96621.22;5045368;28;20492;-68
2021/01/08 01:42:54;;;;;;;70.93;41.47;;;;;;;7.72;100.00;96646.94;5064319;28;20111;-67
2021/01/08 01:45:19;;;;;;;72.93;43.00;;;;;;;7.66;100.00;96626.34;5063474;28;20045;-68
2021/01/08 01:47:45;;;;;;;67.00;40.97;;;;;;;7.90;100.00;96646.50;5063756;28;20052;-68
2021/01/08 01:50:10;;;;;;;69.45;42.55;;;;;;;7.89;100.00;96650.44;5044828;28;20040;-68
2021/01/08 01:52:37;;;;;;;76.80;45.00;;;;;;;7.97;100.00;96668.69;5050163;28;20430;-68
2021/01/08 01:55:04;;;;;;;74.65;46.47;;;;;;;7.97;100.00;96641.13;5025685;28;20112;-68
2021/01/08 01:57:30;;;;;;;67.50;40.67;;;;;;;8.15;100.00;96642.28;5043727;28;20045;-68
2021/01/08 01:59:56;;;;;;;69.82;43.35;;;;;;;8.08;100.00;96628.38;5044181;28;20499;-68
2021/01/08 02:02:30;;;;;;;70.90;43.78;;;;;;;8.00;100.00;96607.31;5043376;28;20028;-67
2021/01/08 02:05:00;;;;;;;71.20;43.35;;;;;;;8.06;100.00;96616.91;5032581;28;20037;-66
2021/01/08 02:07:29;;;;;;;68.65;41.75;;;;;;;7.70;100.00;96571.25;5005262;28;20087;-68
2021/01/08 02:09:57;;;;;;;72.05;43.95;;;;;;;8.10;100.00;96623.25;5024062;28;20037;-67
2021/01/08 02:12:25;;;;;;;67.50;41.33;;;;;;;8.16;100.00;96614.34;5024407;28;20499;-67
2021/01/08 02:14:52;;;;;;;73.00;44.80;;;;;;;8.22;100.00;96603.81;5009118;28;20038;-68
2021/01/08 02:17:18;;;;;;;75.60;45.50;;;;;;;8.21;100.00;96607.72;5026428;28;20527;-68
2021/01/08 02:19:50;;;;;;;69.25;40.15;;;;;;;8.23;100.00;96599.91;5008920;28;20033;-67
2021/01/08 02:22:47;;;;;;;78.07;46.15;;;;;;;8.21;100.00;96596.69;5026686;28;20048;-68
2021/01/08 02:25:12;;;;;;;72.38;43.13;;;;;;;7.83;100.00;96536.06;5008508;28;20409;-68
2021/01/08 02:27:41;;;;;;;71.53;42.35;;;;;;;8.05;100.00;96576.66;5026995;28;20052;-69
2021/01/08 02:30:08;;;;;;;71.07;41.38;;;;;;;7.96;100.00;96578.88;5026777;28;20029;-69
2021/01/08 02:32:34;;;;;;;77.38;44.40;;;;;;;7.77;100.00;96559.59;5025399;28;20040;-69
2021/01/08 02:35:02;;;;;;;80.35;48.42;;;;;;;7.33;100.00;96485.47;5027160;28;20587;-69
2021/01/08 02:37:35;;;;;;;99.43;61.35;;;;;;;8.08;100.00;96609.06;5026537;28;20068;-68
2021/01/08 02:40:02;;;;;;;110.97;59.10;;;;;;;8.04;100.00;96597.16;5009151;28;20417;-69
2021/01/08 02:42:27;;;;;;;114.78;63.33;;;;;;;8.02;100.00;96593.94;5026170;28;20072;-67
2021/01/08 02:44:53;;;;;;;106.10;62.75;;;;;;;7.62;100.00;96542.75;5027079;28;20486;-67
2021/01/08 02:47:20;;;;;;;106.50;61.85;;;;;;;8.06;100.00;96581.03;5026015;28;20061;-67
2021/01/08 02:49:45;;;;;;;109.30;62.30;;;;;;;7.99;100.00;96589.97;5026883;28;20124;-67
2021/01/08 02:52:11;;;;;;;108.47;63.65;;;;;;;8.07;100.00;96596.41;5044013;28;20112;-68
2021/01/08 02:54:36;;;;;;;108.07;59.80;;;;;;;8.03;100.00;96581.78;5066618;28;20068;-68
2021/01/08 02:57:05;;;;;;;126.05;63.58;;;;;;;7.98;100.00;96582.06;5047791;28;20039;-68
2021/01/08 02:59:31;;;;;;;126.63;65.10;;;;;;;7.51;100.00;96496.84;5066588;28;20047;-67
2021/01/08 03:01:57;;;;;;;120.60;64.32;;;;;;;7.69;100.00;96520.06;5065957;28;20037;-68
2021/01/08 03:04:22;;;;;;;111.88;63.10;;;;;;;8.00;100.00;96563.97;5048345;28;20047;-68
2021/01/08 03:06:51;;;;;;;121.97;65.60;;;;;;;7.80;100.00;96567.13;5065905;28;20033;-66
2021/01/08 03:09:16;;;;;;;138.88;66.88;;;;;;;7.86;100.00;96568.41;5066260;28;20041;-66
2021/01/08 03:11:56;;;;;;;125.28;61.67;;;;;;;7.93;100.00;96563.84;5066159;28;20070;-66
2021/01/08 03:14:22;;;;;;;120.78;60.40;;;;;;;7.66;100.00;96565.69;5066254;28;20032;-67
2021/01/08 03:16:47;;;;;;;103.43;55.58;;;;;;;7.32;100.00;96516.94;5065468;28;20027;-66
2021/01/08 03:19:13;;;;;;;89.63;49.83;;;;;;;7.72;100.00;96557.91;5066109;28;20048;-68
2021/01/08 03:21:39;;;;;;;73.25;43.30;;;;;;;7.74;100.00;96559.13;5065023;28;20032;-67
2021/01/08 03:24:05;;;;;;;63.60;37.78;;;;;;;7.62;100.00;96556.53;5065407;28;20040;-67
2021/01/08 03:26:30;;;;;;;69.28;38.55;;;;;;;7.65;100.00;96558.56;5047139;28;20509;-67
2021/01/08 03:28:56;;;;;;;64.50;39.90;;;;;;;7.52;100.00;96543.34;5047417;28;20037;-68
2021/01/08 03:31:21;;;;;;;70.32;40.67;;;;;;;7.61;100.00;96568.75;5064942;28;20032;-68
2021/01/08 03:33:46;;;;;;;66.25;39.22;;;;;;;7.62;100.00;96575.84;5065763;28;20032;-69
2021/01/08 03:36:12;;;;;;;71.88;38.35;;;;;;;7.68;100.00;96568.88;5065203;28;20419;-67
2021/01/08 03:38:37;;;;;;;64.20;37.55;;;;;;;6.93;100.00;96423.66;5065588;28;20037;-68
2021/01/08 03:41:03;;;;;;;64.20;35.55;;;;;;;7.83;100.00;96564.44;5065042;28;20043;-68
2021/01/08 03:43:28;;;;;;;62.22;33.58;;;;;;;7.92;100.00;96561.47;5062519;28;20067;-67
2021/01/08 03:45:54;;;;;;;59.38;32.80;;;;;;;7.61;100.00;96508.09;5025533;28;20033;-68
2021/01/08 03:48:19;;;;;;;52.50;30.40;;;;;;;8.03;100.00;96559.72;5025452;28;20136;-69
2021/01/08 03:50:44;;;;;;;56.53;31.90;;;;;;;8.06;100.00;96572.75;5007385;28;20041;-68
2021/01/08 03:53:10;;;;;;;56.83;30.60;;;;;;;7.98;100.00;96584.81;5056230;28;20032;-68
2021/01/08 03:55:35;;;;;;;52.25;31.75;;;;;;;8.01;100.00;96554.56;5065191;28;20059;-68
2021/01/08 03:58:01;;;;;;;56.65;33.65;;;;;;;8.03;100.00;96562.47;5047035;28;20180;-68
2021/01/08 04:00:26;;;;;;;45.95;28.58;;;;;;;8.07;100.00;96546.78;5064943;28;20453;-68
2021/01/08 04:02:52;;;;;;;59.38;30.88;;;;;;;8.00;100.00;96543.91;5065278;28;20673;-68
2021/01/08 04:05:17;;;;;;;62.97;36.95;;;;;;;7.93;100.00;96541.00;5064790;28;20551;-69
2021/01/08 04:07:42;;;;;;;61.70;34.63;;;;;;;7.94;100.00;96548.09;5065032;28;20470;-67
2021/01/08 04:10:08;;;;;;;54.97;32.20;;;;;;;7.99;100.00;96553.31;5064611;28;20045;-68
2021/01/08 04:12:34;;;;;;;54.15;30.85;;;;;;;8.03;100.00;96543.16;5065117;28;20051;-68
2021/01/08 04:14:59;;;;;;;59.67;31.10;;;;;;;7.88;100.00;96538.53;5046798;28;20135;-68
2021/01/08 04:17:25;;;;;;;63.65;33.92;;;;;;;7.95;100.00;96544.19;5064402;28;20133;-67
2021/01/08 04:19:50;;;;;;;45.13;28.20;;;;;;;7.98;100.00;96548.97;5064985;28;20040;-66
2021/01/08 04:22:16;;;;;;;94.80;46.47;;;;;;;7.91;100.00;96532.28;5064955;28;20024;-68
2021/01/08 04:24:41;;;;;;;172.95;74.40;;;;;;;8.05;100.00;96532.53;5046636;28;20498;-68
2021/01/08 04:27:07;;;;;;;208.70;92.55;;;;;;;8.00;100.00;96541.13;5064171;28;20028;-67
2021/01/08 04:29:32;;;;;;;61.88;34.15;;;;;;;7.81;100.00;96522.66;5046309;28;20037;-68
2021/01/08 04:31:58;;;;;;;53.05;30.73;;;;;;;7.98;100.00;96554.50;5064331;28;20036;-67
2021/01/08 04:34:23;;;;;;;70.50;39.60;;;;;;;8.07;100.00;96541.25;5045834;28;20040;-67
2021/01/08 04:36:48;;;;;;;51.13;29.80;;;;;;;7.97;100.00;96537.13;5045756;28;20566;-67
2021/01/08 04:39:14;;;;;;;54.70;29.55;;;;;;;7.97;100.00;96539.09;5064469;28;20440;-67
2021/01/08 04:41:40;;;;;;;49.55;28.85;;;;;;;8.12;100.00;96543.72;5064191;28;20530;-67
2021/01/08 04:44:06;;;;;;;120.70;70.05;;;;;;;7.97;100.00;96515.06;5064460;28;20056;-67
2021/01/08 04:46:34;;;;;;;79.45;40.38;;;;;;;8.13;100.00;96539.78;5063924;28;20048;-67
2021/01/08 04:49:09;;;;;;;132.07;66.40;;;;;;;7.81;100.00;96528.16;5046536;28;20048;-67
2021/01/08 04:51:38;;;;;;;113.50;70.88;;;;;;;7.41;100.00;96459.66;5062262;28;20078;-67
2021/01/08 04:54:04;;;;;;;126.88;93.25;;;;;;;7.30;100.00;96431.13;5044276;28;20053;-67
2021/01/08 04:56:53;;;;;;;58.45;35.67;;;;;;;7.97;100.00;96536.31;5025578;28;20065;-67
2021/01/08 04:59:19;;;;;;;45.50;27.10;;;;;;;8.04;100.00;96530.97;5044373;28;20037;-68
2021/01/08 05:01:45;;;;;;;49.38;25.52;;;;;;;6.67;100.00;96351.97;5044008;28;20565;-68
2021/01/08 05:04:10;;;;;;;44.03;24.08;;;;;;;7.44;100.00;96469.97;5044386;28;20041;-67
2021/01/08 05:06:36;;;;;;;41.33;23.92;;;;;;;7.30;100.00;96468.91;5043598;28;20055;-67
2021/01/08 05:09:02;;;;;;;46.88;27.27;;;;;;;7.89;100.00;96515.31;5044354;28;20045;-68
2021/01/08 05:11:29;;;;;;;62.80;40.67;;;;;;;7.98;100.00;96510.38;5025459;28;20031;-67
2021/01/08 05:14:07;;;;;;;75.85;50.90;;;;;;;7.68;100.00;96466.88;5044131;28;20052;-67
2021/01/08 05:16:33;;;;;;;88.15;55.38;;;;;;;8.12;100.00;96505.09;5043805;28;20040;-66
2021/01/08 05:19:01;;;;;;;66.63;40.88;;;;;;;7.80;100.00;96448.56;5026069;28;20420;-68
2021/01/08 05:21:28;;;;;;;60.75;35.58;;;;;;;7.47;100.00;96394.84;5025393;28;20072;-68
2021/01/08 05:23:56;;;;;;;50.55;31.50;;;;;;;8.11;100.00;96492.47;5044198;28;20107;-65
2021/01/08 05:26:22;;;;;;;55.35;34.47;;;;;;;7.59;100.00;96405.69;5041841;28;20029;-66
2021/01/08 05:28:52;;;;;;;54.22;32.03;;;;;;;7.79;100.00;96435.97;5044157;28;20025;-67
2021/01/08 05:31:18;;;;;;;57.55;35.10;;;;;;;8.20;100.00;96487.50;5025051;28;20542;-66
2021/01/08 05:33:44;;;;;;;69.65;43.88;;;;;;;8.25;100.00;96481.72;5043886;28;20086;-67
2021/01/08 05:36:13;;;;;;;93.70;52.47;;;;;;;8.12;100.00;96463.72;5043562;28;20404;-67
2021/01/08 05:38:41;;;;;;;59.90;36.85;;;;;;;8.15;100.00;96476.78;5043860;28;20044;-66
2021/01/08 05:41:09;;;;;;;76.60;44.95;;;;;;;8.07;100.00;96453.00;5043038;28;20120;-67
2021/01/08 05:43:37;;;;;;;136.20;75.00;;;;;;;7.44;100.00;96351.50;5025910;28;20036;-65
2021/01/08 05:46:07;;;;;;;208.95;107.25;;;;;;;8.01;100.00;96448.97;5025837;28;20052;-65
2021/01/08 05:48:33;;;;;;;102.25;57.60;;;;;;;8.12;100.00;96461.78;5047388;28;20067;-65
2021/01/08 05:50:59;;;;;;;177.48;97.00;;;;;;;8.17;100.00;96463.41;5047109;28;20037;-65
2021/01/08 05:53:26;;;;;;;133.85;66.72;;;;;;;7.59;100.00;96389.16;5064090;28;20505;-66
2021/01/08 05:55:52;;;;;;;120.53;59.50;;;;;;;8.06;100.00;96451.41;5067206;28;20076;-67
2021/01/08 05:58:21;;;;;;;100.38;53.67;;;;;;;8.24;100.00;96452.50;5067584;28;20094;-67
2021/01/08 06:00:57;;;;;;;104.18;59.80;;;;;;;8.20;100.00;96462.69;5067419;28;20641;-67
2021/01/08 06:03:23;;;;;;;77.30;43.58;;;;;;;7.08;100.00;96280.41;5049304;28;20431;-67
2021/01/08 06:05:53;;;;;;;86.47;45.00;;;;;;;7.75;100.00;96380.75;5037456;28;20082;-69
2021/01/08 06:08:25;;;;;;;62.97;36.53;;;;;;;7.68;100.00;96348.38;5042761;28;20041;-65
2021/01/08 06:10:54;;;;;;;64.05;35.20;;;;;;;8.01;100.00;96415.88;5028252;28;20076;-64
2021/01/08 06:13:24;;;;;;;79.00;43.15;;;;;;;8.33;100.00;96450.31;5022263;28;20562;-60
2021/01/08 06:15:51;;;;;;;74.60;39.17;;;;;;;7.88;100.00;96382.19;5038237;28;20071;-62
2021/01/08 06:18:19;;;;;;;67.45;35.92;;;;;;;8.44;100.00;96462.31;5039550;28;20036;-63
2021/01/08 06:20:47;;;;;;;68.85;35.85;;;;;;;8.45;100.00;96473.00;5040553;28;20480;-64
2021/01/08 06:23:50;;;;;;;75.43;37.92;;;;;;;8.11;100.00;96431.81;5026655;28;20412;-69
2021/01/08 06:26:17;;;;;;;71.18;35.53;;;;;;;8.37;100.00;96473.22;5046465;28;20099;-62
2021/01/08 06:28:50;;;;;;;88.57;43.47;;;;;;;8.22;100.00;96515.53;5028058;28;20090;-65
2021/01/08 06:31:22;;;;;;;84.63;45.17;;;;;;;8.18;100.00;96473.28;5026772;28;20052;-65
2021/01/08 06:33:52;;;;;;;77.88;42.15;;;;;;;8.09;100.00;96462.50;5044784;28;20032;-67
2021/01/08 06:36:20;;;;;;;74.75;37.35;;;;;;;7.76;100.00;96420.97;5045758;28;20029;-66
2021/01/08 06:38:49;;;;;;;61.53;33.28;;;;;;;7.01;100.00;96329.84;5045498;28;20111;-62
2021/01/08 06:41:16;;;;;;;56.13;29.42;;;;;;;8.03;100.00;96430.09;5045867;28;20040;-66
2021/01/08 06:44:00;;;;;;;57.10;30.02;;;;;;;8.15;100.00;96460.22;5026849;28;20032;-66
2021/01/08 06:46:34;;;;;;;54.83;28.63;;;;;;;8.30;100.00;96462.09;5045900;28;20431;-66
2021/01/08 06:49:04;;;;;;;66.75;33.15;;;;;;;8.00;100.00;96415.06;5028736;28;20060;-67
2021/01/08 06:51:31;;;;;;;50.65;27.40;;;;;;;7.92;100.00;96424.38;5046167;28;20040;-64
2021/01/08 06:53:59;;;;;;;54.85;29.45;;;;;;;8.15;100.00;96457.47;5045786;28;20105;-63
2021/01/08 06:56:48;;;;;;;54.58;27.42;;;;;;;7.89;100.00;96451.91;5045760;28;20064;-63
2021/01/08 06:59:17;;;;;;;60.65;27.92;;;;;;;7.84;100.00;96461.25;5044699;28;20063;-63
2021/01/08 07:02:19;;;;;;;66.03;31.60;;;;;;;7.52;100.00;96457.13;5027596;28;20025;-66
2021/01/08 07:04:46;;;;;;;66.38;32.45;;;;;;;7.41;100.00;96454.16;4967019;28;20125;-65
2021/01/08 07:07:13;;;;;;;87.40;34.60;;;;;;;7.52;100.00;96457.91;5015416;28;20037;-66
2021/01/08 07:09:39;;;;;;;67.38;32.50;;;;;;;7.73;100.00;96472.09;5046162;28;20411;-64
2021/01/08 07:12:09;;;;;;;70.43;31.35;;;;;;;7.30;100.00;96381.53;5045550;28;20435;-65
2021/01/08 07:14:36;;;;;;;69.57;27.50;;;;;;;7.79;100.00;96431.25;5046142;28;20032;-68
2021/01/08 07:17:04;;;;;;;63.17;26.92;;;;;;;7.91;100.00;96430.25;5043757;28;20060;-64
2021/01/08 07:19:30;;;;;;;59.75;24.88;;;;;;;8.27;100.00;96471.91;5045966;28;20055;-71
2021/01/08 07:21:59;;;;;;;65.28;26.33;;;;;;;7.32;100.00;96359.13;5045774;28;20025;-64
2021/01/08 07:24:36;;;;;;;79.75;30.25;;;;;;;8.22;100.00;96512.78;5045664;28;20037;-64
2021/01/08 07:27:20;;;;;;;72.05;28.52;;;;;;;8.01;100.00;96465.50;5045386;28;20534;-67
2021/01/08 07:29:53;;;;;;;77.95;28.02;;;;;;;7.69;100.00;96464.94;5027524;28;20052;-65
2021/01/08 07:32:41;;;;;;;78.15;28.88;;;;;;;7.71;100.00;96462.63;5044523;28;20058;-66
2021/01/08 07:35:16;;;;;;;74.80;28.88;;;;;;;7.59;100.00;96477.34;5026677;28;20033;-60
2021/01/08 07:37:53;;;;;;;103.18;35.03;;;;;;;7.80;100.00;96473.38;5026445;28;20040;-66
2021/01/08 07:40:19;;;;;;;182.38;71.43;;;;;;;7.36;100.00;96374.59;5043345;28;20557;-69
2021/01/08 07:43:02;;;;;;;164.00;69.65;;;;;;;8.20;100.00;96470.97;5050161;28;20020;-64
2021/01/08 07:45:48;;;;;;;110.38;52.60;;;;;;;6.23;100.00;96123.19;5034074;28;20049;-69
2021/01/08 07:48:22;;;;;;;73.40;32.90;;;;;;;7.57;100.00;96430.06;5025054;28;20560;-62
2021/01/08 07:50:51;;;;;;;;;;;;;;;7.58;100.00;96475.78;5024020;28;20131;-64
2021/01/08 07:53:45;;;;;;;84.88;36.97;;;;;;;7.60;100.00;96478.16;5052918;28;19971;-65
2021/01/08 07:56:22;;;;;;;88.53;38.78;;;;;;;6.15;100.00;96280.91;5063850;28;20495;-63
2021/01/08 07:59:05;;;;;;;91.90;41.35;;;;;;;7.16;100.00;96452.88;5065184;28;20066;-63
2021/01/08 08:01:32;;;;;;;103.53;42.38;;;;;;;7.34;100.00;96481.59;5064693;28;20054;-66
2021/01/08 08:04:08;;;;;;;112.03;43.78;;;;;;;7.52;100.00;96488.22;5057797;28;20144;-64
2021/01/08 08:06:35;;;;;;;101.95;41.13;;;;;;;7.56;100.00;96477.28;5044842;28;20052;-64
2021/01/08 08:09:06;;;;;;;87.57;37.20;;;;;;;7.31;100.00;96426.41;5044602;28;20499;-67
2021/01/08 08:11:34;;;;;;;104.10;42.33;;;;;;;7.64;100.00;96456.97;5044272;28;20025;-62
2021/01/08 08:14:00;;;;;;;92.07;37.45;;;;;;;6.55;100.00;96322.63;5044645;28;20041;-61
2021/01/08 08:16:44;;;;;;;87.70;33.33;;;;;;;7.47;100.00;96447.22;5044254;28;20519;-62
2021/01/08 08:19:12;;;;;;;85.35;34.03;;;;;;;7.65;100.00;96475.88;5034769;28;20190;-65
2021/01/08 08:21:44;;;;;;;108.07;38.95;;;;;;;5.71;100.00;96117.41;5042996;28;20416;-64
2021/01/08 08:24:10;;;;;;;93.88;35.80;;;;;;;8.17;100.00;96463.41;5033045;28;20060;-69
2021/01/08 08:26:35;;;;;;;104.80;42.78;;;;;;;8.21;100.00;96425.63;5015544;28;20226;-67
2021/01/08 08:29:02;;;;;;;104.32;42.88;;;;;;;7.28;100.00;96264.63;5021748;28;20048;-64
2021/01/08 08:31:32;;;;;;;105.55;44.97;;;;;;;8.70;100.00;96454.84;5023653;28;20025;-63
2021/01/08 08:33:59;;;;;;;105.93;42.25;;;;;;;8.78;100.00;96466.78;5006108;28;20060;-63
2021/01/08 08:36:27;;;;;;;123.30;43.90;;;;;;;8.84;100.00;96457.00;5023919;28;20040;-63
2021/01/08 08:39:02;;;;;;;117.90;44.72;;;;;;;8.64;100.00;96405.84;5023192;28;20078;-65
2021/01/08 08:41:29;;;;;;;118.78;39.78;;;;;;;8.67;100.00;96410.59;5023317;28;20040;-64
2021/01/08 08:44:03;;;;;;;99.07;41.22;;;;;;;9.09;100.00;96466.41;5023810;28;20034;-63
2021/01/08 08:46:43;;;;;;;94.65;37.38;;;;;;;9.17;100.00;96446.78;5024212;28;20498;-68
2021/01/08 08:49:11;;;;;;;113.70;43.80;;;;;;;8.48;100.00;96314.13;5024756;28;20611;-60
2021/01/08 08:51:42;;;;;;;118.40;49.45;;;;;;;9.31;100.00;96440.63;5023912;28;20049;-61
2021/01/08 08:54:08;;;;;;;138.65;55.80;;;;;;;9.30;100.00;96422.47;5024742;28;20048;-62
2021/01/08 08:56:34;;;;;;;127.22;49.70;;;;;;;9.32;100.00;96431.19;5023784;28;20041;-64
2021/01/08 08:59:00;;;;;;;116.63;49.97;;;;;;;9.49;100.00;96427.81;5023857;28;20617;-63
2021/01/08 09:01:38;;;;;;;111.13;45.28;;;;;;;9.33;100.00;96409.84;5023433;28;20128;-61
2021/01/08 09:04:04;;;;;;;118.63;42.60;;;;;;;9.05;100.00;96355.09;5005950;28;20033;-62
2021/01/08 09:06:35;;;;;;;114.65;44.20;;;;;;;8.84;100.00;96316.16;5023543;28;20041;-63
2021/01/08 09:09:06;;;;;;;98.65;44.85;;;;;;;9.51;100.00;96416.38;5023437;28;20567;-64
2021/01/08 09:11:42;;;;;;;113.07;43.75;;;;;;;9.19;100.00;96367.09;5005815;28;20064;-62
2021/01/08 09:14:14;;;;;;;117.32;40.05;;;;;;;9.33;100.00;96355.38;5005995;28;20095;-63
2021/01/08 09:16:52;;;;;;;138.90;49.50;;;;;;;9.53;100.00;96387.19;5033446;28;20033;-63
2021/01/08 09:19:56;;;;;;;111.97;43.83;;;;;;;8.94;100.00;96315.50;5038352;28;20037;-62
2021/01/08 09:22:22;;;;;;;250.85;122.60;;;;;;;9.00;100.00;96336.06;5023329;28;20053;-63
2021/01/08 09:24:49;;;;;;;128.70;42.67;;;;;;;8.94;100.00;96348.63;5010056;28;20059;-61
2021/01/08 09:27:16;;;;;;;137.10;42.97;;;;;;;9.44;100.00;96397.75;5027269;28;20037;-62
2021/01/08 09:29:42;;;;;;;243.38;105.05;;;;;;;9.38;100.00;96396.50;5028224;28;20033;-61
2021/01/08 09:32:08;;;;;;;176.02;62.28;;;;;;;9.54;100.00;96380.50;5027405;28;20037;-61
2021/01/08 09:34:35;;;;;;;181.82;62.60;;;;;;;9.61;100.00;96375.00;5028410;28;20393;-62
2021/01/08 09:37:13;;;;;;;163.27;67.22;;;;;;;9.34;100.00;96334.88;5027307;28;20060;-62
2021/01/08 09:39:40;;;;;;;150.45;43.20;;;;;;;9.76;100.00;96367.66;5004089;28;20033;-61
2021/01/08 09:42:06;;;;;;;169.38;58.35;;;;;;;9.80;100.00;96358.22;5025016;28;20440;-62
2021/01/08 09:44:36;;;;;;;143.07;54.55;;;;;;;10.06;100.00;96349.75;5020165;28;20091;-62
2021/01/08 09:47:06;;;;;;;151.70;65.82;;;;;;;10.21;100.00;96340.38;5026176;28;20089;-61
2021/01/08 09:49:42;;;;;;;140.77;55.05;;;;;;;10.13;100.00;96338.75;5009647;28;20049;-62
2021/01/08 09:52:11;;;;;;;141.85;54.35;;;;;;;10.29;100.00;96342.03;5026795;28;20052;-62
2021/01/08 09:54:46;;;;;;;139.27;54.47;;;;;;;10.57;100.00;96342.19;5027476;28;20112;-63
2021/01/08 09:57:38;;;;;;;96.60;37.30;;;;;;;10.67;100.00;96330.38;5026801;28;20065;-62
2021/01/08 10:00:06;;;;;;;76.03;31.33;;;;;;;10.79;100.00;96320.16;5026656;28;20084;-64
2021/01/08 10:02:42;;;;;;;78.35;31.08;;;;;;;10.92;99.29;96313.09;5027482;28;20543;-62
2021/01/08 10:05:20;;;;;;;94.97;28.42;;;;;;;10.94;98.37;96302.41;5025972;28;20111;-63
2021/01/08 10:07:46;;;;;;;80.53;29.98;;;;;;;10.08;97.19;96186.94;5007749;28;20050;-62
2021/01/08 10:10:14;;;;;;;76.07;22.10;;;;;;;11.04;97.48;96304.41;5007172;28;20136;-61
2021/01/08 10:12:47;;;;;;;75.53;30.50;;;;;;;9.98;96.42;96137.84;5006109;28;20571;-61
2021/01/08 10:15:14;;;;;;;63.58;20.67;;;;;;;10.62;97.63;96296.75;5005480;28;20467;-61
2021/01/08 10:17:46;;;;;;;78.70;23.35;;;;;;;10.18;100.00;96296.88;5026724;28;20552;-61
2021/01/08 10:20:17;;;;;;;50.85;17.05;;;;;;;10.08;100.00;96291.28;5026784;28;20029;-61
2021/01/08 10:22:53;;;;;;;78.00;24.63;;;;;;;9.88;100.00;96210.50;5027318;28;20462;-63
2021/01/08 10:25:30;;;;;;;75.00;28.80;;;;;;;10.58;100.00;96293.94;5026002;28;20105;-63
2021/01/08 10:28:13;;;;;;;80.15;25.13;;;;;;;9.83;100.00;96127.88;5009318;28;20095;-62
2021/01/08 10:30:39;;;;;;;75.20;30.67;;;;;;;10.96;100.00;96280.63;5026912;28;20044;-63
2021/01/08 10:33:06;;;;;;;87.18;30.65;;;;;;;10.66;99.59;96229.09;5025618;28;20103;-62
2021/01/08 10:35:31;;;;;;;90.72;31.45;;;;;;;11.07;98.27;96278.69;5025987;28;20645;-62
2021/01/08 10:37:56;;;;;;;85.15;35.63;;;;;;;10.63;98.48;96220.78;5026546;28;20037;-62
2021/01/08 10:40:22;;;;;;;88.53;29.55;;;;;;;10.77;97.32;96211.72;5026211;28;20049;-63
2021/01/08 10:42:47;;;;;;;95.15;32.67;;;;;;;10.45;96.45;96179.19;5011110;28;20412;-61
2021/01/08 10:45:14;;;;;;;106.05;34.53;;;;;;;11.20;97.26;96266.06;5023045;28;20123;-63
2021/01/08 10:47:40;;;;;;;89.70;35.38;;;;;;;10.41;96.63;96150.72;5006262;28;20053;-63
2021/01/08 10:50:06;;;;;;;90.78;35.88;;;;;;;11.33;97.53;96239.53;5005092;28;20045;-62
2021/01/08 10:52:31;;;;;;;84.50;33.80;;;;;;;11.47;96.36;96229.25;5013711;28;20071;-62
2021/01/08 10:54:56;;;;;;;91.72;37.90;;;;;;;11.59;94.81;96239.16;5026705;28;20416;-61
2021/01/08 10:57:22;;;;;;;82.72;35.65;;;;;;;11.57;94.95;96244.31;5025167;28;20041;-61
2021/01/08 10:59:47;;;;;;;97.18;42.60;;;;;;;10.84;94.76;96120.31;5026712;28;20316;-61
2021/01/08 11:02:13;;;;;;;99.85;44.78;;;;;;;11.75;93.88;96239.56;5008438;28;20394;-61
2021/01/08 11:04:42;;;;;;;82.47;36.00;;;;;;;11.18;93.92;96149.22;5022954;28;20033;-62
2021/01/08 11:07:08;;;;;;;83.57;35.05;;;;;;;11.64;93.80;96244.34;5025505;28;20033;-61
2021/01/08 11:09:34;;;;;;;73.97;31.38;;;;;;;11.63;93.75;96237.22;5025972;28;20037;-63
2021/01/08 11:11:59;;;;;;;73.55;32.70;;;;;;;11.60;94.09;96232.44;5007860;28;20041;-60
2021/01/08 11:14:25;;;;;;;93.28;39.35;;;;;;;11.64;94.66;96228.50;5008272;28;20041;-65
2021/01/08 11:16:50;;;;;;;71.03;28.98;;;;;;;10.81;94.29;96093.41;5025112;28;20049;-61
2021/01/08 11:19:16;;;;;;;92.80;29.55;;;;;;;11.26;92.79;96150.81;5025515;28;20079;-63
2021/01/08 11:21:41;;;;;;;79.32;31.50;;;;;;;9.99;92.74;95954.09;5025365;28;20086;-64
2021/01/08 11:24:07;;;;;;;82.70;36.15;;;;;;;11.65;93.47;96229.28;5025650;28;20025;-61